Terminal Aerodrome Forecast
Issued by NWS

Home | Current Version | Previous Version | Text Only | Print | Product List | Glossary On
Versions: 1 2 3 4 5 6 7 8 9 10 11 12 13 14 15 16 17 18 19 20 21 22
000
FTUS43 KJKL 161738
TAFSME
TAF
KSME 161738Z 1618/1718 18006KT P6SM BKN080
     FM170200 17004KT P6SM VCSH OVC070
     FM170600 19007KT 3SM SHRA BR BKN040
     FM170900 20008KT 3SM SHRA BR OVC015
     FM171000 20008KT 3SM SHRA BR VCTS OVC010CB
     FM171700 22012G20KT P6SM -SHRA VCTS OVC010CB=

USA.gov is the U.S. government's official web portal to all federal, state and local government web resources and services.